createdAt,value
2022-09-15T00:01:16.660Z,101099.16
2022-09-15T00:03:45.072Z,101100.38
2022-09-15T00:06:13.676Z,101102.44
2022-09-15T00:08:42.193Z,101116.06
2022-09-15T00:11:12.763Z,101109.31
2022-09-15T00:13:41.344Z,101112.28
2022-09-15T00:16:14.617Z,101111.16
2022-09-15T00:18:43.315Z,101117.06
2022-09-15T00:21:13.691Z,101112.84
2022-09-15T00:23:41.967Z,101113.81
2022-09-15T00:26:11.616Z,101113.81
2022-09-15T00:28:40.119Z,101109.38
2022-09-15T00:31:09.769Z,101124.03
2022-09-15T00:33:38.034Z,101116.38
2022-09-15T00:36:07.383Z,101108.59
2022-09-15T00:38:37.012Z,101123.63
2022-09-15T00:41:06.151Z,101130.00
2022-09-15T00:43:46.277Z,101127.78
2022-09-15T00:46:15.043Z,101131.69
2022-09-15T00:48:49.552Z,101129.13
2022-09-15T00:51:20.411Z,101129.72
2022-09-15T00:53:49.558Z,101127.28
2022-09-15T00:56:19.732Z,101129.22
2022-09-15T00:58:54.824Z,101128.50
2022-09-15T01:01:24.958Z,101131.88
2022-09-15T01:03:53.493Z,101127.38
2022-09-15T01:06:25.395Z,101130.84
2022-09-15T01:09:02.985Z,101128.47
2022-09-15T01:11:31.571Z,101130.28
2022-09-15T01:13:59.692Z,101130.53
2022-09-15T01:16:46.313Z,101131.09
2022-09-15T01:19:33.491Z,101136.56
2022-09-15T01:22:16.577Z,101138.97
2022-09-15T01:24:47.132Z,101136.47
2022-09-15T01:27:41.214Z,101143.72
2022-09-15T01:30:11.935Z,101141.38
2022-09-15T01:33:07.154Z,101145.25
2022-09-15T01:35:35.361Z,101136.97
2022-09-15T01:38:03.311Z,101141.22
2022-09-15T01:40:34.968Z,101143.44
2022-09-15T01:43:03.451Z,101148.44
2022-09-15T01:45:33.931Z,101147.06
2022-09-15T01:48:03.451Z,101151.78
2022-09-15T01:50:34.823Z,101149.31
2022-09-15T01:53:05.447Z,101147.91
2022-09-15T01:55:50.036Z,101154.50
2022-09-15T01:58:18.024Z,101152.88
2022-09-15T02:00:49.098Z,101159.91
2022-09-15T02:03:23.301Z,101166.88
2022-09-15T02:06:03.790Z,101165.72
2022-09-15T02:08:31.786Z,101171.63
2022-09-15T02:11:22.351Z,101173.75
2022-09-15T02:13:50.452Z,101175.88
2022-09-15T02:16:22.871Z,101178.13
2022-09-15T02:19:17.171Z,101177.69
2022-09-15T02:21:54.352Z,101182.63
2022-09-15T02:24:31.616Z,101178.59
2022-09-15T02:27:02.187Z,101179.03
2022-09-15T02:29:33.064Z,101183.75
2022-09-15T02:32:07.005Z,101186.63
2022-09-15T02:34:37.811Z,101185.88
2022-09-15T02:37:06.665Z,101179.94
2022-09-15T02:39:37.710Z,101186.69
2022-09-15T02:42:06.197Z,101187.09
2022-09-15T02:44:34.613Z,101189.22
2022-09-15T02:47:03.131Z,101187.69
2022-09-15T02:49:31.632Z,101195.09
2022-09-15T02:51:59.776Z,101194.31
2022-09-15T02:54:27.889Z,101200.00
2022-09-15T02:56:55.946Z,101203.66
2022-09-15T02:59:23.934Z,101200.09
2022-09-15T03:01:53.254Z,101201.16
2022-09-15T03:04:21.387Z,101205.84
2022-09-15T03:06:49.389Z,101200.78
2022-09-15T03:09:17.509Z,101206.25
2022-09-15T03:11:45.507Z,101206.38
2022-09-15T03:14:13.946Z,101209.25
2022-09-15T03:16:41.998Z,101218.47
2022-09-15T03:19:10.037Z,101222.31
2022-09-15T03:21:38.831Z,101221.84
2022-09-15T03:24:07.152Z,101231.16
2022-09-15T03:26:35.207Z,101226.94
2022-09-15T03:29:03.271Z,101230.66
2022-09-15T03:31:31.354Z,101238.09
2022-09-15T03:33:59.471Z,101242.09
2022-09-15T03:36:27.629Z,101243.25
2022-09-15T03:38:57.213Z,101246.03
2022-09-15T03:41:26.203Z,101244.59
2022-09-15T03:43:54.189Z,101250.06
2022-09-15T03:46:22.292Z,101248.25
2022-09-15T03:48:50.346Z,101249.97
2022-09-15T03:51:18.361Z,101260.72
2022-09-15T03:53:46.387Z,101261.09
2022-09-15T03:56:24.262Z,101263.81
2022-09-15T03:58:52.934Z,101264.84
2022-09-15T04:01:21.478Z,101268.53
2022-09-15T04:03:51.413Z,101265.63
2022-09-15T04:06:20.581Z,101264.53
2022-09-15T04:08:49.371Z,101266.72
2022-09-15T04:11:18.127Z,101269.75
2022-09-15T04:13:46.506Z,101278.00
2022-09-15T04:16:19.030Z,101281.81
2022-09-15T04:18:47.467Z,101288.34
2022-09-15T04:21:17.141Z,101283.22
2022-09-15T04:23:45.691Z,101291.34
2022-09-15T04:26:33.965Z,101286.09
2022-09-15T04:29:04.540Z,101296.13
2022-09-15T04:31:33.777Z,101290.16
2022-09-15T04:34:01.889Z,101289.19
2022-09-15T04:36:30.511Z,101286.72
2022-09-15T04:38:59.321Z,101290.63
2022-09-15T04:41:28.108Z,101289.97
2022-09-15T04:43:56.426Z,101291.19
2022-09-15T04:46:24.556Z,101285.16
2022-09-15T04:48:53.030Z,101292.31
2022-09-15T04:51:22.666Z,101292.53
2022-09-15T04:53:51.532Z,101300.78
2022-09-15T04:56:21.671Z,101297.03
2022-09-15T04:58:54.026Z,101297.03
2022-09-15T05:01:26.864Z,101301.66
2022-09-15T05:03:55.144Z,101308.13
2022-09-15T05:06:25.221Z,101307.13
2022-09-15T05:08:54.350Z,101307.97
2022-09-15T05:11:22.826Z,101312.91
2022-09-15T05:13:51.312Z,101310.47
2022-09-15T05:16:21.753Z,101306.09
2022-09-15T05:18:51.266Z,101324.91
2022-09-15T05:21:20.278Z,101305.34
2022-09-15T05:23:48.997Z,101311.75
2022-09-15T05:26:18.612Z,101311.66
2022-09-15T05:28:46.986Z,101312.53
2022-09-15T05:31:19.392Z,101311.91
2022-09-15T05:33:48.571Z,101312.06
2022-09-15T05:36:16.865Z,101309.47
2022-09-15T05:38:45.511Z,101309.47
2022-09-15T05:41:20.586Z,101307.56
2022-09-15T05:43:49.329Z,101306.66
2022-09-15T05:46:18.441Z,101307.66
2022-09-15T05:48:46.968Z,101298.91
2022-09-15T05:51:15.787Z,101304.47
2022-09-15T05:53:43.895Z,101302.53
2022-09-15T05:56:13.241Z,101306.00
2022-09-15T05:58:42.188Z,101306.69
2022-09-15T06:01:13.018Z,101307.56
2022-09-15T06:03:41.711Z,101303.06
2022-09-15T06:06:09.751Z,101308.63
2022-09-15T06:08:41.465Z,101307.66
2022-09-15T06:11:14.151Z,101306.91
2022-09-15T06:13:42.549Z,101307.75
2022-09-15T06:16:11.682Z,101306.81
2022-09-15T06:18:40.266Z,101304.13
2022-09-15T06:21:10.026Z,101305.84
2022-09-15T06:23:38.451Z,101307.56
2022-09-15T06:26:14.451Z,101298.59
2022-09-15T06:28:43.787Z,101297.53
2022-09-15T06:31:15.312Z,101307.50
2022-09-15T06:33:47.829Z,101306.56
2022-09-15T06:36:16.581Z,101310.88
2022-09-15T06:38:44.987Z,101309.84
2022-09-15T06:41:13.698Z,101311.56
2022-09-15T06:43:42.268Z,101305.19
2022-09-15T06:46:11.992Z,101311.56
2022-09-15T06:48:41.072Z,101310.81
2022-09-15T06:51:11.791Z,101309.69
2022-09-15T06:53:40.582Z,101311.31
2022-09-15T06:56:08.591Z,101315.94
2022-09-15T06:58:37.214Z,101324.03
2022-09-15T07:01:06.336Z,101326.91
2022-09-15T07:03:34.452Z,101323.28
2022-09-15T07:06:02.822Z,101324.91
2022-09-15T07:08:30.951Z,101330.28
2022-09-15T07:10:59.389Z,101324.91
2022-09-15T07:13:27.571Z,101323.03
2022-09-15T07:15:57.102Z,101331.06
2022-09-15T07:18:25.551Z,101335.63
2022-09-15T07:20:53.707Z,101339.13
2022-09-15T07:23:21.707Z,101338.25
2022-09-15T07:25:49.706Z,101341.81
2022-09-15T07:28:18.456Z,101340.84
2022-09-15T07:30:46.837Z,101335.47
2022-09-15T07:33:15.016Z,101337.22
2022-09-15T07:35:44.132Z,101337.22
2022-09-15T07:38:12.426Z,101331.84
2022-09-15T07:40:40.499Z,101337.22
2022-09-15T07:43:08.671Z,101338.97
2022-09-15T07:45:37.192Z,101326.47
2022-09-15T07:48:05.388Z,101323.03
2022-09-15T07:50:33.693Z,101332.97
2022-09-15T07:53:01.860Z,101328.53
2022-09-15T07:55:31.366Z,101340.34
2022-09-15T07:58:00.511Z,101327.94
2022-09-15T08:00:29.102Z,101334.41
2022-09-15T08:02:57.551Z,101331.09
2022-09-15T08:05:29.559Z,101337.44
2022-09-15T08:07:57.612Z,101332.22
2022-09-15T08:10:29.191Z,101332.22
2022-09-15T08:12:57.230Z,101335.81
2022-09-15T08:15:25.546Z,101350.13
2022-09-15T08:17:56.427Z,101339.41
2022-09-15T08:20:24.432Z,101344.00
2022-09-15T08:22:52.556Z,101338.72
2022-09-15T08:25:20.586Z,101330.81
2022-09-15T08:27:48.695Z,101338.97
2022-09-15T08:30:16.833Z,101334.63
2022-09-15T08:32:45.051Z,101338.50
2022-09-15T08:35:13.046Z,101327.19
2022-09-15T08:37:41.511Z,101322.16
2022-09-15T08:40:17.289Z,101327.88
2022-09-15T08:42:46.309Z,101329.19
2022-09-15T08:45:37.191Z,101330.50
2022-09-15T08:48:08.646Z,101330.97
2022-09-15T08:50:41.851Z,101336.66
2022-09-15T08:53:14.013Z,101334.44
2022-09-15T08:55:53.860Z,101342.78
2022-09-15T08:58:23.301Z,101335.06
2022-09-15T09:00:53.333Z,101332.66
2022-09-15T09:03:40.101Z,101331.25
2022-09-15T09:06:15.772Z,101332.34
2022-09-15T09:08:46.611Z,101341.56
2022-09-15T09:11:20.426Z,101340.97
2022-09-15T09:14:02.504Z,101329.78
2022-09-15T09:16:30.510Z,101337.13
2022-09-15T09:18:58.513Z,101337.38
2022-09-15T09:21:31.289Z,101339.38
2022-09-15T09:23:59.289Z,101339.72
2022-09-15T09:26:29.536Z,101347.16
2022-09-15T09:29:01.711Z,101350.03
2022-09-15T09:31:30.570Z,101343.13
2022-09-15T09:34:07.272Z,101342.38
2022-09-15T09:36:35.306Z,101342.53
2022-09-15T09:39:04.911Z,101342.72
2022-09-15T09:41:37.532Z,101343.81
2022-09-15T09:44:07.803Z,101347.63
2022-09-15T09:46:36.167Z,101350.47
2022-09-15T09:49:13.702Z,101349.78
2022-09-15T09:52:03.467Z,101342.00
2022-09-15T09:54:33.706Z,101343.97
2022-09-15T09:57:20.263Z,101352.19
2022-09-15T09:59:49.545Z,101345.28
2022-09-15T10:02:19.304Z,101358.84
2022-09-15T10:04:51.710Z,101347.34
2022-09-15T10:07:21.706Z,101351.91
2022-09-15T10:09:51.621Z,101348.41
2022-09-15T10:12:39.781Z,101344.94
2022-09-15T10:15:09.384Z,101349.47
2022-09-15T10:17:37.384Z,101345.22
2022-09-15T10:20:07.627Z,101347.22
2022-09-15T10:22:35.630Z,101344.78
2022-09-15T10:25:05.706Z,101347.63
2022-09-15T10:27:35.628Z,101338.81
2022-09-15T10:30:15.972Z,101341.56
2022-09-15T10:32:44.321Z,101331.94
2022-09-15T10:35:17.704Z,101333.00
2022-09-15T10:37:45.755Z,101333.00
2022-09-15T10:40:32.073Z,101338.34
2022-09-15T10:43:23.619Z,101345.81
2022-09-15T10:45:57.402Z,101345.22
2022-09-15T10:48:31.311Z,101335.50
2022-09-15T10:50:59.410Z,101333.78
2022-09-15T10:53:33.651Z,101336.53
2022-09-15T10:56:26.992Z,101325.84
2022-09-15T10:59:01.971Z,101333.03
2022-09-15T11:01:36.592Z,101340.38
2022-09-15T11:04:22.986Z,101330.69
2022-09-15T11:07:06.331Z,101337.81
2022-09-15T11:09:41.971Z,101330.81
2022-09-15T11:12:18.186Z,101326.31
2022-09-15T11:15:06.350Z,101326.44
2022-09-15T11:17:54.511Z,101327.53
2022-09-15T11:20:40.871Z,101326.63
2022-09-15T11:23:18.828Z,101326.63
2022-09-15T11:25:51.153Z,101326.81
2022-09-15T11:28:23.887Z,101325.16
2022-09-15T11:30:54.601Z,101330.63
2022-09-15T11:33:26.514Z,101336.88
2022-09-15T11:36:01.390Z,101331.66
2022-09-15T11:38:39.589Z,101331.72
2022-09-15T11:41:10.509Z,101343.34
2022-09-15T11:43:38.617Z,101335.41
2022-09-15T11:46:10.998Z,101346.97
2022-09-15T11:48:45.071Z,101339.81
2022-09-15T11:51:16.249Z,101341.66
2022-09-15T11:54:00.109Z,101342.59
2022-09-15T11:56:36.426Z,101339.00
2022-09-15T11:59:13.546Z,101332.00
2022-09-15T12:01:47.548Z,101340.88
2022-09-15T12:04:25.011Z,101342.75
2022-09-15T12:06:56.777Z,101340.06
2022-09-15T12:09:24.911Z,101334.78
2022-09-15T12:11:55.787Z,101342.00
2022-09-15T12:14:36.334Z,101342.97
2022-09-15T12:17:06.984Z,101343.03
2022-09-15T12:19:34.986Z,101353.72
2022-09-15T12:22:08.901Z,101348.38
2022-09-15T12:24:44.912Z,101348.38
2022-09-15T12:27:19.866Z,101348.31
2022-09-15T12:29:52.091Z,101349.16
2022-09-15T12:32:21.011Z,101352.69
2022-09-15T12:34:59.626Z,101356.31
2022-09-15T12:37:31.273Z,101362.59
2022-09-15T12:39:59.493Z,101363.47
2022-09-15T12:42:35.630Z,101371.47
2022-09-15T12:45:08.429Z,101366.13
2022-09-15T12:47:39.467Z,101369.66
2022-09-15T12:50:29.019Z,101367.06
2022-09-15T12:53:01.538Z,101367.94
2022-09-15T12:55:32.752Z,101367.00
2022-09-15T12:58:02.341Z,101359.91
2022-09-15T13:00:33.697Z,101362.69
2022-09-15T13:03:02.886Z,101371.66
2022-09-15T13:05:59.977Z,101370.84
2022-09-15T13:08:30.986Z,101373.50
2022-09-15T13:11:02.138Z,101380.66
2022-09-15T13:13:41.029Z,101374.50
2022-09-15T13:16:13.711Z,101387.91
2022-09-15T13:18:43.462Z,101376.41
2022-09-15T13:21:14.334Z,101376.41
2022-09-15T13:23:46.201Z,101384.41
2022-09-15T13:26:17.701Z,101380.88
2022-09-15T13:28:45.965Z,101388.94
2022-09-15T13:31:25.565Z,101386.38
2022-09-15T13:40:03.528Z,101390.06
2022-09-15T13:42:44.427Z,101388.34
2022-09-15T13:45:18.024Z,101386.63
2022-09-15T13:48:18.188Z,101391.97
2022-09-15T13:50:52.436Z,101389.31
2022-09-15T13:53:33.405Z,101396.44
2022-09-15T13:56:04.421Z,101402.63
2022-09-15T14:01:26.252Z,101406.31
2022-09-15T14:03:59.573Z,101415.19
2022-09-15T14:06:31.317Z,101408.97
2022-09-15T14:09:01.546Z,101410.69
2022-09-15T14:11:31.790Z,101413.25
2022-09-15T14:14:04.091Z,101415.81
2022-09-15T14:16:34.893Z,101420.19
2022-09-15T14:19:04.906Z,101426.38
2022-09-15T14:21:34.347Z,101420.97
2022-09-15T14:24:08.089Z,101425.34
2022-09-15T14:26:37.545Z,101427.84
2022-09-15T14:29:07.141Z,101425.03
2022-09-15T14:31:35.223Z,101431.06
2022-09-15T14:34:04.267Z,101431.75
2022-09-15T14:36:33.736Z,101427.19
2022-09-15T14:39:14.063Z,101423.53
2022-09-15T14:41:42.436Z,101436.72
2022-09-15T14:47:28.875Z,101442.59
2022-09-15T14:50:10.829Z,101432.59
2022-09-15T14:52:42.661Z,101440.44
2022-09-15T14:55:14.319Z,101447.34
2022-09-15T14:57:45.638Z,101446.25
2022-09-15T15:00:16.906Z,101453.91
2022-09-15T15:02:44.845Z,101457.94
2022-09-15T15:05:18.662Z,101461.97
2022-09-15T15:07:47.411Z,101464.22
2022-09-15T15:10:18.506Z,101465.66
2022-09-15T15:12:52.256Z,101470.63
2022-09-15T15:15:21.051Z,101469.41
2022-09-15T15:17:50.828Z,101472.72
2022-09-15T15:20:20.906Z,101469.59
2022-09-15T15:22:49.546Z,101469.19
2022-09-15T15:25:26.454Z,101466.31
2022-09-15T15:27:58.981Z,101475.28
2022-09-15T15:30:32.981Z,101475.00
2022-09-15T15:33:02.897Z,101479.03
2022-09-15T15:35:32.106Z,101473.25
2022-09-15T15:38:15.611Z,101474.75
2022-09-15T15:40:44.571Z,101480.50
2022-09-15T15:43:21.991Z,101469.31
2022-09-15T15:45:52.049Z,101473.25
2022-09-15T15:48:20.111Z,101475.50
2022-09-15T15:50:48.767Z,101475.13
2022-09-15T15:53:16.818Z,101473.19
2022-09-15T15:55:45.873Z,101467.09
2022-09-15T15:58:14.824Z,101468.81
2022-09-15T16:00:47.514Z,101468.38
2022-09-15T16:03:17.156Z,101472.38
2022-09-15T16:05:49.971Z,101476.38
2022-09-15T16:08:26.972Z,101476.16
2022-09-15T16:10:55.781Z,101482.06
2022-09-15T16:13:24.514Z,101481.94
2022-09-15T16:15:57.658Z,101485.88
2022-09-15T16:18:25.886Z,101482.72
2022-09-15T16:20:54.102Z,101487.13
2022-09-15T16:23:26.372Z,101488.81
2022-09-15T16:25:54.508Z,101486.84
2022-09-15T16:28:22.924Z,101486.91
2022-09-15T16:30:50.963Z,101490.06
2022-09-15T16:33:19.981Z,101492.53
2022-09-15T16:35:53.452Z,101490.38
2022-09-15T16:38:22.036Z,101498.63
2022-09-15T16:40:52.102Z,101491.69
2022-09-15T16:43:24.494Z,101498.31
2022-09-15T16:45:53.406Z,101494.91
2022-09-15T16:48:21.521Z,101496.28
2022-09-15T16:53:40.497Z,101489.31
2022-09-15T16:56:11.340Z,101490.69
2022-09-15T16:58:39.457Z,101492.47
2022-09-15T17:01:08.008Z,101493.56
2022-09-15T17:03:36.357Z,101494.53
2022-09-15T17:06:04.391Z,101494.53
2022-09-15T17:08:33.517Z,101495.63
2022-09-15T17:11:03.039Z,101497.59
2022-09-15T17:13:33.056Z,101497.66
2022-09-15T17:16:01.945Z,101491.78
2022-09-15T17:18:30.351Z,101493.88
2022-09-15T17:20:58.591Z,101488.53
2022-09-15T17:23:28.638Z,101488.63
2022-09-15T17:26:00.009Z,101486.13
2022-09-15T17:28:29.876Z,101491.53
2022-09-15T17:31:08.284Z,101491.31
2022-09-15T17:33:36.309Z,101493.34
2022-09-15T17:36:04.915Z,101498.28
2022-09-15T17:38:33.806Z,101494.53
2022-09-15T17:41:02.066Z,101489.47
2022-09-15T17:43:31.277Z,101488.91
2022-09-15T17:45:59.470Z,101495.56
2022-09-15T17:48:27.551Z,101501.47
2022-09-15T17:50:55.565Z,101498.59
2022-09-15T17:53:27.705Z,101497.31
2022-09-15T17:55:56.719Z,101491.34
2022-09-15T17:58:27.246Z,101488.03
2022-09-15T18:00:55.418Z,101479.69
2022-09-15T18:03:24.041Z,101483.72
2022-09-15T18:05:52.745Z,101490.22
2022-09-15T18:08:20.739Z,101483.22
2022-09-15T18:10:49.077Z,101476.53
2022-09-15T18:13:18.431Z,101484.06
2022-09-15T18:15:46.789Z,101476.88
2022-09-15T18:18:16.336Z,101480.53
2022-09-15T18:20:44.675Z,101482.44
2022-09-15T18:23:17.515Z,101475.44
2022-09-15T18:25:46.011Z,101473.78
2022-09-15T18:28:14.420Z,101479.38
2022-09-15T18:30:44.937Z,101467.53
2022-09-15T18:33:18.196Z,101463.03
2022-09-15T18:35:46.579Z,101463.28
2022-09-15T18:38:14.857Z,101461.25
2022-09-15T18:41:01.226Z,101465.25
2022-09-15T18:43:29.361Z,101461.34
2022-09-15T18:46:00.873Z,101468.34
2022-09-15T18:48:29.034Z,101463.59
2022-09-15T18:50:57.322Z,101463.31
2022-09-15T18:53:26.032Z,101472.78
2022-09-15T18:55:54.066Z,101462.69
2022-09-15T18:58:23.391Z,101469.44
2022-09-15T19:00:51.421Z,101473.59
2022-09-15T19:03:19.746Z,101468.63
2022-09-15T19:05:47.742Z,101469.56
2022-09-15T19:08:16.499Z,101472.34
2022-09-15T19:10:45.187Z,101469.78
2022-09-15T19:13:14.895Z,101466.84
2022-09-15T19:15:44.902Z,101469.56
2022-09-15T19:18:13.102Z,101466.50
2022-09-15T19:20:41.496Z,101473.44
2022-09-15T19:23:10.598Z,101475.25
2022-09-15T19:25:38.653Z,101474.75
2022-09-15T19:28:06.559Z,101472.03
2022-09-15T19:30:34.594Z,101471.28
2022-09-15T19:33:03.629Z,101468.78
2022-09-15T19:35:31.606Z,101464.72
2022-09-15T19:37:59.559Z,101465.69
2022-09-15T19:40:27.622Z,101464.94
2022-09-15T19:42:55.606Z,101463.50
2022-09-15T19:45:23.489Z,101460.97
2022-09-15T19:47:51.310Z,101463.84
2022-09-15T19:50:19.372Z,101459.97
2022-09-15T19:52:47.319Z,101456.31
2022-09-15T19:55:15.279Z,101471.28
2022-09-15T19:57:43.619Z,101467.81
2022-09-15T20:00:15.479Z,101461.16
2022-09-15T20:02:43.425Z,101470.06
2022-09-15T20:05:14.738Z,101465.97
2022-09-15T20:07:43.270Z,101460.69
2022-09-15T20:10:11.420Z,101465.34
2022-09-15T20:12:39.285Z,101463.97
2022-09-15T20:15:08.265Z,101461.38
2022-09-15T20:17:36.841Z,101455.03
2022-09-15T20:20:05.078Z,101457.78
2022-09-15T20:22:32.980Z,101447.84
2022-09-15T20:25:00.899Z,101455.97
2022-09-15T20:27:28.815Z,101454.19
2022-09-15T20:29:58.184Z,101454.53
2022-09-15T20:32:30.185Z,101448.47
2022-09-15T20:34:58.159Z,101451.09
2022-09-15T20:37:26.025Z,101447.19
2022-09-15T20:39:54.056Z,101451.44
2022-09-15T20:42:22.026Z,101447.47
2022-09-15T20:44:50.028Z,101448.59
2022-09-15T20:47:18.046Z,101455.13
2022-09-15T20:49:46.002Z,101450.16
2022-09-15T20:52:14.073Z,101447.28
2022-09-15T20:54:42.030Z,101442.81
2022-09-15T20:57:11.000Z,101441.50
2022-09-15T20:59:38.996Z,101438.06
2022-09-15T21:02:08.709Z,101429.69
2022-09-15T21:04:36.737Z,101429.53
2022-09-15T21:07:04.740Z,101414.81
2022-09-15T21:09:32.815Z,101430.19
2022-09-15T21:12:01.229Z,101420.22
2022-09-15T21:14:29.194Z,101412.84
2022-09-15T21:16:57.202Z,101413.78
2022-09-15T21:19:25.241Z,101407.78
2022-09-15T21:21:53.232Z,101405.94
2022-09-15T21:24:24.219Z,101404.72
2022-09-15T21:27:10.978Z,101403.06
2022-09-15T21:29:39.006Z,101407.63
2022-09-15T21:32:07.225Z,101405.28
2022-09-15T21:34:35.152Z,101406.13
2022-09-15T21:37:03.148Z,101402.03
2022-09-15T21:39:31.144Z,101410.19
2022-09-15T21:41:59.143Z,101402.84
2022-09-15T21:44:26.990Z,101401.72
2022-09-15T21:46:55.803Z,101404.06
2022-09-15T21:49:23.799Z,101404.59
2022-09-15T21:51:51.951Z,101393.66
2022-09-15T21:54:19.946Z,101396.75
2022-09-15T21:56:47.937Z,101398.72
2022-09-15T21:59:15.921Z,101387.84
2022-09-15T22:01:44.151Z,101394.03
2022-09-15T22:04:12.219Z,101393.63
2022-09-15T22:06:41.710Z,101387.59
2022-09-15T22:09:15.462Z,101394.38
2022-09-15T22:11:43.624Z,101397.22
2022-09-15T22:14:12.826Z,101384.84
2022-09-15T22:16:41.657Z,101376.56
2022-09-15T22:19:10.932Z,101369.38
2022-09-15T22:21:42.515Z,101369.78
2022-09-15T22:24:11.789Z,101363.25
2022-09-15T22:26:39.949Z,101365.47
2022-09-15T22:29:08.239Z,101354.47
2022-09-15T22:31:36.170Z,101368.91
2022-09-15T22:34:04.674Z,101351.84
2022-09-15T22:36:33.228Z,101345.94
2022-09-15T22:39:05.447Z,101342.75
2022-09-15T22:41:34.973Z,101350.38
2022-09-15T22:44:03.452Z,101355.31
2022-09-15T22:46:31.471Z,101357.00
2022-09-15T22:48:59.629Z,101345.81
2022-09-15T22:51:27.630Z,101344.28
2022-09-15T22:53:57.867Z,101357.78
2022-09-15T22:56:27.068Z,101350.84
2022-09-15T22:58:55.396Z,101358.06
2022-09-15T23:01:25.469Z,101351.44
2022-09-15T23:03:54.480Z,101353.75
2022-09-15T23:06:24.092Z,101355.16
2022-09-15T23:08:52.857Z,101364.34
2022-09-15T23:11:21.725Z,101375.47
2022-09-15T23:13:49.870Z,101374.25
2022-09-15T23:16:18.086Z,101373.00
2022-09-15T23:18:46.185Z,101370.31
2022-09-15T23:21:14.665Z,101365.09
2022-09-15T23:23:44.151Z,101375.22
2022-09-15T23:26:13.225Z,101360.28
2022-09-15T23:28:41.556Z,101358.03
2022-09-15T23:31:11.353Z,101361.41
2022-09-15T23:33:39.316Z,101351.13
2022-09-15T23:36:08.955Z,101359.22
2022-09-15T23:38:37.555Z,101350.34
2022-09-15T23:41:06.524Z,101339.56
2022-09-15T23:43:34.826Z,101344.50
2022-09-15T23:46:03.145Z,101335.75
2022-09-15T23:48:32.633Z,101337.47
2022-09-15T23:51:01.062Z,101341.13
2022-09-15T23:53:29.080Z,101336.53
2022-09-15T23:55:57.066Z,101342.00
2022-09-15T23:58:25.019Z,101346.75
